createdAt,value
2019-02-06T00:01:00.478Z,17.73
2019-02-06T00:04:05.995Z,18.87
2019-02-06T00:07:11.520Z,17.90
2019-02-06T00:10:16.603Z,19.37
2019-02-06T00:13:21.855Z,20.30
2019-02-06T00:16:27.364Z,22.50
2019-02-06T00:19:32.514Z,17.73
2019-02-06T00:22:37.748Z,19.10
2019-02-06T00:25:43.241Z,19.17
2019-02-06T00:28:49.488Z,18.63
2019-02-06T00:31:54.573Z,19.03
2019-02-06T00:34:59.741Z,18.87
2019-02-06T00:38:05.571Z,20.00
2019-02-06T00:41:10.916Z,20.87
2019-02-06T00:44:16.099Z,21.37
2019-02-06T00:47:21.315Z,20.97
2019-02-06T00:50:26.490Z,20.70
2019-02-06T00:53:31.756Z,22.07
2019-02-06T00:56:36.917Z,23.30
2019-02-06T00:59:42.057Z,21.93
2019-02-06T01:02:47.428Z,24.00
2019-02-06T01:05:53.029Z,25.17
2019-02-06T01:08:58.149Z,24.57
2019-02-06T01:12:03.348Z,23.47
2019-02-06T01:15:10.418Z,22.97
2019-02-06T01:18:15.573Z,23.30
2019-02-06T01:21:20.750Z,23.20
2019-02-06T01:24:25.922Z,23.80
2019-02-06T01:27:31.120Z,22.60
2019-02-06T01:30:44.327Z,25.77
2019-02-06T01:33:49.634Z,27.40
2019-02-06T01:36:54.778Z,24.50
2019-02-06T01:39:59.963Z,23.93
2019-02-06T01:43:05.093Z,25.53
2019-02-06T01:46:10.322Z,26.20
2019-02-06T01:49:15.615Z,30.70
2019-02-06T01:52:20.854Z,27.60
2019-02-06T01:55:26.347Z,27.23
2019-02-06T01:58:31.513Z,23.20
2019-02-06T02:01:36.710Z,25.17
2019-02-06T02:04:42.172Z,22.83
2019-02-06T02:07:47.911Z,24.93
2019-02-06T02:10:53.060Z,23.67
2019-02-06T02:13:58.421Z,24.80
2019-02-06T02:17:07.420Z,22.43
2019-02-06T02:20:15.558Z,21.50
2019-02-06T02:23:20.735Z,21.17
2019-02-06T02:26:25.993Z,21.73
2019-02-06T02:29:31.137Z,21.50
2019-02-06T02:32:36.284Z,22.23
2019-02-06T02:35:41.937Z,23.90
2019-02-06T02:38:47.068Z,26.00
2019-02-06T02:41:52.292Z,26.57
2019-02-06T02:44:58.102Z,28.43
2019-02-06T02:48:03.270Z,36.10
2019-02-06T02:51:09.449Z,27.00
2019-02-06T02:54:14.651Z,36.30
2019-02-06T02:57:19.958Z,28.80
2019-02-06T03:00:31.324Z,29.87
2019-02-06T03:03:39.902Z,26.23
2019-02-06T03:06:45.557Z,28.30
2019-02-06T03:09:50.712Z,27.57
2019-02-06T03:12:55.872Z,31.37
2019-02-06T03:16:01.283Z,30.37
2019-02-06T03:19:06.396Z,31.57
2019-02-06T03:22:11.562Z,31.13
2019-02-06T03:25:17.150Z,30.10
2019-02-06T03:28:22.390Z,28.13
2019-02-06T03:31:27.687Z,28.27
2019-02-06T03:34:32.876Z,27.50
2019-02-06T03:37:38.037Z,29.53
2019-02-06T03:40:43.193Z,25.93
2019-02-06T03:43:48.387Z,26.07
2019-02-06T03:46:53.591Z,27.03
2019-02-06T03:49:58.749Z,27.30
2019-02-06T03:53:03.868Z,26.90
2019-02-06T03:56:08.983Z,28.17
2019-02-06T03:59:14.226Z,26.40
2019-02-06T04:02:19.394Z,28.00
2019-02-06T04:05:24.537Z,28.17
2019-02-06T04:08:29.671Z,29.00
2019-02-06T04:11:34.810Z,26.20
2019-02-06T04:14:40.421Z,28.00
2019-02-06T04:17:45.652Z,26.47
2019-02-06T04:20:50.807Z,28.43
2019-02-06T04:23:56.107Z,26.47
2019-02-06T04:27:01.285Z,25.23
2019-02-06T04:30:07.721Z,27.17
2019-02-06T04:33:12.862Z,26.37
2019-02-06T04:36:18.005Z,26.07
2019-02-06T04:39:23.161Z,27.30
2019-02-06T04:42:28.348Z,27.43
2019-02-06T04:45:33.458Z,26.50
2019-02-06T04:48:38.647Z,26.10
2019-02-06T04:51:43.785Z,25.03
2019-02-06T04:54:48.896Z,25.13
2019-02-06T04:57:54.124Z,26.00
2019-02-06T05:00:59.286Z,27.03
2019-02-06T05:04:04.818Z,26.20
2019-02-06T05:07:18.732Z,26.53
2019-02-06T05:10:16.841Z,25.43
2019-02-06T05:13:22.390Z,25.47
2019-02-06T05:16:27.527Z,26.00
2019-02-06T05:19:32.702Z,28.10
2019-02-06T05:22:38.080Z,27.43
2019-02-06T05:25:43.254Z,28.00
2019-02-06T05:28:48.431Z,28.80
2019-02-06T05:31:53.599Z,28.00
2019-02-06T05:34:59.791Z,27.90
2019-02-06T05:38:05.027Z,29.30
2019-02-06T05:41:10.207Z,28.73
2019-02-06T05:44:15.372Z,28.43
2019-02-06T05:47:20.468Z,30.47
2019-02-06T05:50:25.649Z,28.50
2019-02-06T05:53:30.756Z,28.63
2019-02-06T05:56:35.883Z,27.90
2019-02-06T05:59:40.970Z,26.83
2019-02-06T06:02:46.123Z,27.53
2019-02-06T06:05:51.353Z,28.00
2019-02-06T06:08:56.536Z,27.17
2019-02-06T06:12:01.745Z,25.13
2019-02-06T06:15:07.471Z,26.03
2019-02-06T06:18:12.666Z,25.77
2019-02-06T06:21:17.892Z,27.77
2019-02-06T06:24:23.005Z,25.30
2019-02-06T06:27:28.175Z,26.53
2019-02-06T06:30:33.305Z,26.80
2019-02-06T06:33:38.489Z,27.90
2019-02-06T06:36:43.652Z,27.07
2019-02-06T06:39:48.793Z,28.30
2019-02-06T06:42:54.010Z,28.87
2019-02-06T06:45:59.205Z,28.10
2019-02-06T06:49:06.407Z,26.60
2019-02-06T06:52:11.527Z,28.80
2019-02-06T06:55:16.777Z,29.17
2019-02-06T06:58:22.284Z,28.03
2019-02-06T07:01:27.444Z,26.30
2019-02-06T07:04:32.606Z,26.50
2019-02-06T07:07:37.734Z,26.80
2019-02-06T07:10:42.938Z,26.50
2019-02-06T07:13:48.090Z,26.30
2019-02-06T07:16:53.438Z,27.53
2019-02-06T07:19:58.601Z,26.40
2019-02-06T07:23:03.921Z,26.53
2019-02-06T07:26:09.032Z,31.30
2019-02-06T07:29:14.166Z,27.73
2019-02-06T07:32:19.342Z,27.63
2019-02-06T07:35:24.660Z,27.23
2019-02-06T07:38:29.894Z,27.70
2019-02-06T07:41:35.135Z,27.37
2019-02-06T07:44:41.379Z,27.40
2019-02-06T07:47:46.960Z,27.60
2019-02-06T07:50:52.072Z,29.10
2019-02-06T07:53:57.220Z,28.20
2019-02-06T07:57:02.441Z,28.63
2019-02-06T08:00:08.647Z,27.73
2019-02-06T08:03:13.845Z,28.43
2019-02-06T08:06:19.017Z,27.30
2019-02-06T08:09:24.266Z,26.37
2019-02-06T08:12:29.411Z,28.10
2019-02-06T08:15:34.548Z,28.13
2019-02-06T08:18:39.757Z,27.83
2019-02-06T08:21:44.983Z,26.17
2019-02-06T08:24:50.138Z,38.47
2019-02-06T08:27:55.267Z,26.63
2019-02-06T08:31:00.475Z,27.73
2019-02-06T08:34:05.646Z,29.07
2019-02-06T08:37:10.950Z,28.50
2019-02-06T08:40:16.780Z,27.37
2019-02-06T08:43:21.964Z,27.73
2019-02-06T08:46:27.583Z,27.70
2019-02-06T08:49:32.760Z,28.50
2019-02-06T08:52:37.892Z,28.00
2019-02-06T08:55:43.493Z,28.10
2019-02-06T08:58:48.779Z,27.23
2019-02-06T09:01:53.905Z,25.90
2019-02-06T09:04:59.014Z,27.33
2019-02-06T09:08:04.436Z,28.03
2019-02-06T09:11:09.508Z,28.10
2019-02-06T09:14:14.738Z,26.90
2019-02-06T09:17:19.842Z,29.23
2019-02-06T09:20:26.494Z,30.07
2019-02-06T09:23:31.668Z,31.90
2019-02-06T09:26:36.912Z,28.93
2019-02-06T09:29:42.059Z,30.00
2019-02-06T09:32:47.243Z,29.67
2019-02-06T09:35:52.400Z,29.03
2019-02-06T09:38:57.549Z,29.00
2019-02-06T09:42:02.703Z,27.40
2019-02-06T09:45:08.851Z,27.50
2019-02-06T09:48:13.982Z,28.60
2019-02-06T09:51:19.457Z,26.50
2019-02-06T09:54:24.967Z,28.10
2019-02-06T09:57:30.108Z,28.77
2019-02-06T10:00:37.094Z,28.03
2019-02-06T10:03:42.517Z,28.80
2019-02-06T10:06:47.672Z,24.43
2019-02-06T10:09:52.826Z,27.47
2019-02-06T10:12:58.051Z,27.43
2019-02-06T10:16:03.238Z,27.67
2019-02-06T10:19:08.356Z,28.40
2019-02-06T10:22:13.768Z,27.33
2019-02-06T10:25:18.969Z,27.83
2019-02-06T10:28:27.173Z,27.90
2019-02-06T10:31:32.879Z,26.30
2019-02-06T10:34:38.220Z,26.40
2019-02-06T10:37:43.316Z,25.97
2019-02-06T10:40:48.486Z,26.93
2019-02-06T10:43:54.061Z,26.77
2019-02-06T10:46:59.241Z,25.47
2019-02-06T10:50:04.851Z,28.40
2019-02-06T10:53:10.321Z,25.50
2019-02-06T10:56:15.424Z,33.20
2019-02-06T10:59:20.550Z,28.00
2019-02-06T11:02:25.684Z,26.80
2019-02-06T11:05:30.930Z,26.17
2019-02-06T11:08:36.120Z,27.70
2019-02-06T11:11:41.256Z,27.00
2019-02-06T11:14:46.408Z,25.37
2019-02-06T11:17:51.583Z,27.33
2019-02-06T11:20:56.791Z,26.20
2019-02-06T11:24:01.995Z,26.87
2019-02-06T11:27:07.216Z,28.67
2019-02-06T11:30:18.445Z,26.10
2019-02-06T11:33:25.021Z,25.53
2019-02-06T11:36:30.162Z,27.63
2019-02-06T11:39:35.409Z,24.23
2019-02-06T11:42:40.813Z,25.40
2019-02-06T11:45:46.048Z,25.97
2019-02-06T11:48:51.162Z,25.90
2019-02-06T11:51:56.326Z,26.60
2019-02-06T11:55:01.521Z,27.73
2019-02-06T11:58:07.104Z,25.63
2019-02-06T12:01:25.311Z,25.70
2019-02-06T12:04:30.737Z,24.97
2019-02-06T12:07:35.870Z,25.03
2019-02-06T12:10:41.105Z,23.97
2019-02-06T12:13:46.621Z,24.30
2019-02-06T12:16:51.773Z,26.23
2019-02-06T12:19:56.933Z,25.47
2019-02-06T12:23:02.151Z,26.00
2019-02-06T12:26:07.348Z,23.63
2019-02-06T12:29:12.442Z,25.30
2019-02-06T12:32:17.638Z,25.00
2019-02-06T12:35:22.939Z,25.23
2019-02-06T12:38:28.055Z,24.47
2019-02-06T12:41:33.213Z,24.93
2019-02-06T12:44:38.351Z,23.70
2019-02-06T12:47:43.616Z,24.87
2019-02-06T12:50:49.122Z,24.83
2019-02-06T12:53:54.426Z,24.33
2019-02-06T12:56:59.596Z,24.37
2019-02-06T13:00:06.900Z,24.33
2019-02-06T13:03:13.442Z,24.97
2019-02-06T13:06:18.598Z,24.17
2019-02-06T13:09:23.867Z,22.77
2019-02-06T13:12:29.043Z,23.23
2019-02-06T13:15:34.165Z,24.00
2019-02-06T13:18:39.335Z,22.97
2019-02-06T13:21:44.490Z,22.93
2019-02-06T13:24:49.601Z,24.67
2019-02-06T13:27:54.691Z,23.40
2019-02-06T13:31:01.009Z,26.53
2019-02-06T13:34:06.250Z,32.80
2019-02-06T13:37:11.380Z,23.63
2019-02-06T13:40:18.649Z,24.33
2019-02-06T13:43:23.775Z,24.57
2019-02-06T13:46:29.036Z,23.77
2019-02-06T13:49:34.360Z,23.93
2019-02-06T13:52:39.563Z,21.93
2019-02-06T13:55:44.704Z,23.77
2019-02-06T13:58:49.869Z,22.73
2019-02-06T14:01:56.052Z,23.83
2019-02-06T14:05:01.209Z,22.57
2019-02-06T14:08:12.009Z,22.23
2019-02-06T14:11:17.143Z,22.83
2019-02-06T14:14:22.307Z,23.00
2019-02-06T14:17:27.504Z,21.63
2019-02-06T14:20:33.107Z,23.30
2019-02-06T14:23:54.282Z,23.47
2019-02-06T14:27:40.645Z,24.50
2019-02-06T14:31:22.720Z,22.63
2019-02-06T14:35:06.792Z,21.60
2019-02-06T14:38:43.778Z,23.90
2019-02-06T14:42:35.075Z,24.03
2019-02-06T14:46:31.176Z,21.80
2019-02-06T14:49:53.679Z,21.33
2019-02-06T14:53:40.812Z,25.40
2019-02-06T14:57:48.335Z,24.63
2019-02-06T15:01:52.928Z,23.47
2019-02-06T15:05:26.962Z,23.37
2019-02-06T15:09:22.489Z,28.23
2019-02-06T15:12:49.789Z,24.93
2019-02-06T15:16:18.247Z,22.70
2019-02-06T15:19:44.589Z,24.13
2019-02-06T15:23:32.863Z,23.27
2019-02-06T15:26:57.192Z,22.37
2019-02-06T15:30:23.069Z,21.70
2019-02-06T15:34:11.198Z,22.40
2019-02-06T15:37:43.139Z,23.17
2019-02-06T15:41:14.316Z,22.13
2019-02-06T15:44:44.605Z,25.03
2019-02-06T15:48:02.667Z,24.33
2019-02-06T15:51:49.691Z,28.27
2019-02-06T15:55:32.427Z,22.43
2019-02-06T15:59:06.186Z,29.50
2019-02-06T16:02:43.586Z,28.17
2019-02-06T16:06:23.493Z,25.17
2019-02-06T16:10:05.179Z,27.90
2019-02-06T16:13:59.370Z,26.17
2019-02-06T16:17:41.442Z,24.30
2019-02-06T16:21:21.922Z,23.57
2019-02-06T16:25:08.781Z,26.67
2019-02-06T16:29:10.512Z,24.33
2019-02-06T16:32:41.357Z,20.67
2019-02-06T16:36:06.235Z,23.90
2019-02-06T16:39:52.338Z,26.87
2019-02-06T16:43:34.510Z,24.53
2019-02-06T16:47:25.851Z,25.97
2019-02-06T16:50:42.406Z,23.80
2019-02-06T16:54:24.097Z,24.40
2019-02-06T16:57:51.905Z,31.00
2019-02-06T17:01:41.213Z,29.70
2019-02-06T17:05:30.944Z,27.23
2019-02-06T17:09:12.454Z,23.60
2019-02-06T17:13:01.560Z,24.17
2019-02-06T17:16:54.433Z,25.37
2019-02-06T17:20:26.165Z,23.83
2019-02-06T17:24:05.789Z,24.03
2019-02-06T17:27:51.365Z,24.33
2019-02-06T17:31:33.369Z,22.77
2019-02-06T17:35:16.941Z,22.30
2019-02-06T17:38:45.646Z,22.27
2019-02-06T17:42:15.843Z,35.43
2019-02-06T17:45:54.475Z,32.63
2019-02-06T17:49:36.736Z,30.07
2019-02-06T17:53:26.192Z,39.07
2019-02-06T17:56:31.319Z,33.53
2019-02-06T17:59:36.605Z,37.97
2019-02-06T18:02:41.767Z,31.70
2019-02-06T18:05:47.030Z,28.03
2019-02-06T18:08:56.798Z,28.07
2019-02-06T18:11:59.488Z,27.00
2019-02-06T18:15:05.175Z,25.87
2019-02-06T18:18:10.524Z,27.23
2019-02-06T18:21:15.721Z,26.87
2019-02-06T18:24:20.980Z,25.97
2019-02-06T18:27:26.165Z,24.67
2019-02-06T18:30:31.773Z,25.07
2019-02-06T18:33:36.889Z,26.57
2019-02-06T18:36:42.127Z,26.33
2019-02-06T18:39:47.371Z,27.73
2019-02-06T18:42:53.987Z,29.20
2019-02-06T18:45:59.249Z,26.23
2019-02-06T18:49:04.910Z,25.93
2019-02-06T18:52:20.020Z,26.00
2019-02-06T18:55:17.190Z,24.47
2019-02-06T18:58:22.457Z,27.13
2019-02-06T19:01:27.714Z,25.73
2019-02-06T19:04:32.982Z,26.80
2019-02-06T19:07:38.230Z,25.70
2019-02-06T19:10:43.504Z,26.27
2019-02-06T19:13:49.364Z,26.13
2019-02-06T19:16:54.467Z,30.10
2019-02-06T19:19:59.660Z,31.80
2019-02-06T19:23:05.463Z,29.93
2019-02-06T19:26:11.733Z,29.47
2019-02-06T19:29:16.887Z,29.07
2019-02-06T19:32:22.355Z,34.53
2019-02-06T19:35:27.626Z,35.10
2019-02-06T19:38:32.955Z,34.47
2019-02-06T19:41:38.762Z,35.30
2019-02-06T19:44:44.326Z,37.03
2019-02-06T19:47:49.990Z,35.73
2019-02-06T19:50:55.585Z,33.47
2019-02-06T19:54:00.799Z,34.57
2019-02-06T19:57:06.073Z,34.90
2019-02-06T20:00:15.266Z,28.87
2019-02-06T20:03:20.475Z,30.10
2019-02-06T20:06:29.399Z,28.03
2019-02-06T20:09:36.331Z,29.67
2019-02-06T20:12:42.374Z,27.23
2019-02-06T20:15:47.637Z,27.03
2019-02-06T20:18:53.141Z,27.87
2019-02-06T20:21:58.327Z,26.80
2019-02-06T20:25:04.343Z,25.07
2019-02-06T20:28:09.693Z,27.93
2019-02-06T20:31:14.864Z,25.67
2019-02-06T20:34:20.039Z,26.37
2019-02-06T20:37:25.440Z,25.93
2019-02-06T20:40:32.881Z,36.57
2019-02-06T20:43:38.002Z,31.97
2019-02-06T20:46:43.151Z,34.03
2019-02-06T20:49:48.271Z,33.10
2019-02-06T20:52:53.452Z,31.87
2019-02-06T20:55:59.090Z,32.87
2019-02-06T20:59:04.567Z,32.53
2019-02-06T21:02:09.914Z,31.93
2019-02-06T21:05:15.238Z,29.20
2019-02-06T21:08:20.399Z,29.00
2019-02-06T21:11:25.645Z,29.80
2019-02-06T21:14:30.888Z,28.50
2019-02-06T21:17:36.146Z,29.13
2019-02-06T21:20:41.832Z,27.00
2019-02-06T21:23:47.128Z,28.20
2019-02-06T21:26:52.318Z,26.87
2019-02-06T21:29:57.469Z,25.80
2019-02-06T21:33:02.677Z,26.60
2019-02-06T21:36:07.928Z,25.53
2019-02-06T21:39:13.098Z,26.87
2019-02-06T21:42:18.574Z,25.47
2019-02-06T21:45:23.727Z,25.13
2019-02-06T21:48:29.480Z,26.20
2019-02-06T21:51:34.637Z,26.87
2019-02-06T21:54:40.208Z,29.97
2019-02-06T21:57:45.502Z,32.50
2019-02-06T22:00:50.623Z,32.83
2019-02-06T22:03:55.776Z,32.43
2019-02-06T22:07:00.949Z,37.37
2019-02-06T22:10:07.578Z,32.03
2019-02-06T22:13:12.698Z,33.47
2019-02-06T22:16:17.904Z,34.70
2019-02-06T22:19:23.055Z,32.40
2019-02-06T22:22:28.176Z,29.07
2019-02-06T22:25:33.347Z,28.23
2019-02-06T22:28:38.497Z,30.33
2019-02-06T22:31:43.647Z,31.77
2019-02-06T22:34:49.295Z,28.47
2019-02-06T22:37:54.395Z,27.57
2019-02-06T22:40:59.574Z,28.93
2019-02-06T22:44:06.813Z,27.77
2019-02-06T22:47:13.147Z,26.90
2019-02-06T22:50:20.110Z,26.90
2019-02-06T22:53:25.294Z,28.60
2019-02-06T22:56:30.459Z,26.13
2019-02-06T22:59:35.590Z,26.67
2019-02-06T23:02:40.763Z,27.40
2019-02-06T23:05:45.900Z,27.07
2019-02-06T23:08:52.256Z,26.30
2019-02-06T23:11:57.414Z,26.00
2019-02-06T23:15:02.860Z,25.47
2019-02-06T23:18:09.436Z,25.47
2019-02-06T23:21:14.572Z,25.63
2019-02-06T23:24:19.748Z,26.10
2019-02-06T23:27:24.924Z,26.17
2019-02-06T23:30:30.099Z,24.50
2019-02-06T23:33:35.276Z,25.97
2019-02-06T23:36:40.439Z,27.77
2019-02-06T23:39:45.614Z,28.77
2019-02-06T23:42:50.707Z,28.10
2019-02-06T23:45:55.875Z,29.20
2019-02-06T23:49:01.009Z,28.10
2019-02-06T23:52:06.277Z,26.00
2019-02-06T23:55:11.817Z,26.27
2019-02-06T23:58:17.052Z,24.67
